createdAt,value
2022-10-15T00:01:15.971Z,12.34
2022-10-15T00:03:44.146Z,12.26
2022-10-15T00:06:16.246Z,12.27
2022-10-15T00:08:43.200Z,12.31
2022-10-15T00:11:21.478Z,12.32
2022-10-15T00:13:48.691Z,12.36
2022-10-15T00:16:18.566Z,12.41
2022-10-15T00:18:45.017Z,12.35
2022-10-15T00:21:13.160Z,12.34
2022-10-15T00:23:39.670Z,12.32
2022-10-15T00:26:14.610Z,12.37
2022-10-15T00:28:42.013Z,12.32
2022-10-15T00:31:11.269Z,12.30
2022-10-15T00:33:38.302Z,12.30
2022-10-15T00:36:08.104Z,12.36
2022-10-15T00:38:35.481Z,12.37
2022-10-15T00:41:02.550Z,12.36
2022-10-15T00:43:41.136Z,12.37
2022-10-15T00:46:17.069Z,12.38
2022-10-15T00:48:46.461Z,12.38
2022-10-15T00:51:12.848Z,12.37
2022-10-15T00:53:39.407Z,12.25
2022-10-15T00:56:06.381Z,12.38
2022-10-15T00:58:34.525Z,12.42
2022-10-15T01:01:01.240Z,12.40
2022-10-15T01:03:27.766Z,12.38
2022-10-15T01:05:54.976Z,12.39
2022-10-15T01:08:21.408Z,12.33
2022-10-15T01:10:59.650Z,12.38
2022-10-15T01:13:42.945Z,12.38
2022-10-15T01:16:22.973Z,12.35
2022-10-15T01:18:59.936Z,12.37
2022-10-15T01:21:42.081Z,12.34
2022-10-15T01:24:14.431Z,12.38
2022-10-15T01:27:01.564Z,12.40
2022-10-15T01:29:48.654Z,12.40
2022-10-15T01:32:28.311Z,12.39
2022-10-15T01:35:22.496Z,12.39
2022-10-15T01:37:55.653Z,12.34
2022-10-15T01:41:14.406Z,12.35
2022-10-15T01:44:03.733Z,12.32
2022-10-15T01:46:41.452Z,12.38
2022-10-15T01:49:10.123Z,12.35
2022-10-15T01:51:40.023Z,12.30
2022-10-15T01:54:11.706Z,12.40
2022-10-15T01:56:39.298Z,12.39
2022-10-15T01:59:08.628Z,12.35
2022-10-15T02:01:35.122Z,12.33
2022-10-15T02:04:01.761Z,12.24
2022-10-15T02:06:37.163Z,12.29
2022-10-15T02:09:21.878Z,12.30
2022-10-15T02:12:17.482Z,12.35
2022-10-15T02:14:53.040Z,12.35
2022-10-15T02:17:31.484Z,12.34
2022-10-15T02:20:06.113Z,12.28
2022-10-15T02:22:46.925Z,12.33
2022-10-15T02:25:18.928Z,12.29
2022-10-15T02:27:48.411Z,12.32
2022-10-15T02:30:16.892Z,12.29
2022-10-15T02:32:47.985Z,12.31
2022-10-15T02:35:14.548Z,12.24
2022-10-15T02:37:46.540Z,12.31
2022-10-15T02:40:13.258Z,12.29
2022-10-15T02:42:40.008Z,12.24
2022-10-15T02:45:07.374Z,12.26
2022-10-15T02:47:33.900Z,12.27
2022-10-15T02:50:00.347Z,12.27
2022-10-15T02:52:26.790Z,12.20
2022-10-15T02:54:53.239Z,12.25
2022-10-15T02:57:19.622Z,12.20
2022-10-15T02:59:46.027Z,12.10
2022-10-15T03:02:15.383Z,12.13
2022-10-15T03:04:44.844Z,12.16
2022-10-15T03:07:11.276Z,12.13
2022-10-15T03:09:37.634Z,12.14
2022-10-15T03:12:04.883Z,12.21
2022-10-15T03:14:31.271Z,12.19
2022-10-15T03:16:57.676Z,12.18
2022-10-15T03:19:24.243Z,12.12
2022-10-15T03:21:50.595Z,12.13
2022-10-15T03:24:16.985Z,12.12
2022-10-15T03:26:43.317Z,12.20
2022-10-15T03:29:09.678Z,12.22
2022-10-15T03:31:36.092Z,12.18
2022-10-15T03:34:02.476Z,12.25
2022-10-15T03:36:28.843Z,12.27
2022-10-15T03:38:55.282Z,12.23
2022-10-15T03:41:21.647Z,12.28
2022-10-15T03:43:47.992Z,12.26
2022-10-15T03:46:15.707Z,12.28
2022-10-15T03:48:42.069Z,12.31
2022-10-15T03:51:08.448Z,12.35
2022-10-15T03:53:34.792Z,12.31
2022-10-15T03:56:05.289Z,12.39
2022-10-15T03:58:31.740Z,12.31
2022-10-15T04:00:58.177Z,12.37
2022-10-15T04:03:24.651Z,12.34
2022-10-15T04:05:54.103Z,12.34
2022-10-15T04:08:21.713Z,12.38
2022-10-15T04:10:48.165Z,12.31
2022-10-15T04:13:14.524Z,12.37
2022-10-15T04:15:40.958Z,12.29
2022-10-15T04:18:07.691Z,12.31
2022-10-15T04:20:34.057Z,12.46
2022-10-15T04:23:00.390Z,12.42
2022-10-15T04:25:26.801Z,12.44
2022-10-15T04:27:53.640Z,12.44
2022-10-15T04:30:20.014Z,12.42
2022-10-15T04:32:46.448Z,12.36
2022-10-15T04:35:12.933Z,12.38
2022-10-15T04:37:39.279Z,12.43
2022-10-15T04:40:06.314Z,12.46
2022-10-15T04:42:32.702Z,12.43
2022-10-15T04:44:59.061Z,12.43
2022-10-15T04:47:25.725Z,12.43
2022-10-15T04:49:52.304Z,12.46
2022-10-15T04:52:18.649Z,12.45
2022-10-15T04:54:45.003Z,12.42
2022-10-15T04:57:11.368Z,12.48
2022-10-15T04:59:37.959Z,12.38
2022-10-15T05:02:04.341Z,12.36
2022-10-15T05:04:30.704Z,12.49
2022-10-15T05:06:57.096Z,12.55
2022-10-15T05:09:23.467Z,12.51
2022-10-15T05:11:49.904Z,12.52
2022-10-15T05:14:16.443Z,12.43
2022-10-15T05:16:43.496Z,12.45
2022-10-15T05:19:11.151Z,12.48
2022-10-15T05:21:38.232Z,12.46
2022-10-15T05:24:05.288Z,12.51
2022-10-15T05:26:32.598Z,12.53
2022-10-15T05:29:00.144Z,12.51
2022-10-15T05:31:29.452Z,12.48
2022-10-15T05:33:56.183Z,12.48
2022-10-15T05:36:25.744Z,12.49
2022-10-15T05:38:57.665Z,12.47
2022-10-15T05:41:25.667Z,12.50
2022-10-15T05:43:54.236Z,12.64
2022-10-15T05:46:21.103Z,12.53
2022-10-15T05:48:52.012Z,12.50
2022-10-15T05:51:18.607Z,12.52
2022-10-15T05:53:46.215Z,12.45
2022-10-15T05:56:13.526Z,12.47
2022-10-15T05:58:40.580Z,12.53
2022-10-15T06:01:10.204Z,12.45
2022-10-15T06:03:36.932Z,12.50
2022-10-15T06:06:03.980Z,12.47
2022-10-15T06:08:30.973Z,12.45
2022-10-15T06:11:08.419Z,12.56
2022-10-15T06:13:38.010Z,12.47
2022-10-15T06:16:04.718Z,12.45
2022-10-15T06:18:31.101Z,12.51
2022-10-15T06:20:57.999Z,12.44
2022-10-15T06:23:24.389Z,12.49
2022-10-15T06:25:51.034Z,12.51
2022-10-15T06:28:17.531Z,12.45
2022-10-15T06:30:44.194Z,12.48
2022-10-15T06:35:42.362Z,12.56
2022-10-15T06:38:08.735Z,12.43
2022-10-15T06:40:35.120Z,12.46
2022-10-15T06:43:09.196Z,12.45
2022-10-15T06:45:38.616Z,12.47
2022-10-15T06:48:05.856Z,12.51
2022-10-15T06:50:33.627Z,12.60
2022-10-15T06:53:00.381Z,12.61
2022-10-15T06:55:28.876Z,12.60
2022-10-15T06:57:56.380Z,12.50
2022-10-15T07:00:24.484Z,12.54
2022-10-15T07:02:51.784Z,12.58
2022-10-15T07:05:19.118Z,12.55
2022-10-15T07:07:55.554Z,12.49
2022-10-15T07:10:23.333Z,12.54
2022-10-15T07:12:49.735Z,12.45
2022-10-15T07:15:17.152Z,12.58
2022-10-15T07:17:56.687Z,12.51
2022-10-15T07:20:24.523Z,12.55
2022-10-15T07:22:55.610Z,12.59
2022-10-15T07:25:21.955Z,12.60
2022-10-15T07:27:48.373Z,12.61
2022-10-15T07:30:14.747Z,12.61
2022-10-15T07:32:42.667Z,12.60
2022-10-15T07:35:10.934Z,12.62
2022-10-15T07:37:37.301Z,12.57
2022-10-15T07:40:04.474Z,12.65
2022-10-15T07:42:30.837Z,12.64
2022-10-15T07:44:57.164Z,12.60
2022-10-15T07:47:23.790Z,12.68
2022-10-15T07:49:50.327Z,12.68
2022-10-15T07:52:16.719Z,12.71
2022-10-15T07:54:43.087Z,12.65
2022-10-15T07:57:09.429Z,12.76
2022-10-15T07:59:35.933Z,12.73
2022-10-15T08:02:02.300Z,12.78
2022-10-15T08:04:28.768Z,12.82
2022-10-15T08:06:55.374Z,12.88
2022-10-15T08:09:22.260Z,12.86
2022-10-15T08:11:48.627Z,12.88
2022-10-15T08:14:15.051Z,12.94
2022-10-15T08:16:41.400Z,12.96
2022-10-15T08:19:07.878Z,12.94
2022-10-15T08:21:34.231Z,12.89
2022-10-15T08:24:00.684Z,12.99
2022-10-15T08:26:27.276Z,13.00
2022-10-15T08:28:53.695Z,13.02
2022-10-15T08:31:20.150Z,13.04
2022-10-15T08:33:46.518Z,13.05
2022-10-15T08:36:12.887Z,13.06
2022-10-15T08:38:39.256Z,13.18
2022-10-15T08:41:34.934Z,13.19
2022-10-15T08:44:02.185Z,13.25
2022-10-15T08:46:42.679Z,13.32
2022-10-15T08:49:27.065Z,13.36
2022-10-15T08:52:02.113Z,13.41
2022-10-15T08:54:30.644Z,13.46
2022-10-15T08:57:18.171Z,13.42
2022-10-15T09:00:03.510Z,13.47
2022-10-15T09:02:39.821Z,13.54
2022-10-15T09:05:40.245Z,13.55
2022-10-15T09:08:20.176Z,13.51
2022-10-15T09:10:53.226Z,13.46
2022-10-15T09:13:28.771Z,13.40
2022-10-15T09:16:00.875Z,13.46
2022-10-15T09:18:32.259Z,13.50
2022-10-15T09:21:00.319Z,13.45
2022-10-15T09:23:30.465Z,13.50
2022-10-15T09:26:16.763Z,13.50
2022-10-15T09:28:52.108Z,13.57
2022-10-15T09:31:23.836Z,13.55
2022-10-15T09:34:14.514Z,13.71
2022-10-15T09:36:55.936Z,13.66
2022-10-15T09:39:35.653Z,13.73
2022-10-15T09:42:26.958Z,13.75
2022-10-15T09:44:57.843Z,13.68
2022-10-15T09:47:27.765Z,13.76
2022-10-15T09:49:54.141Z,13.73
2022-10-15T09:52:37.617Z,13.72
2022-10-15T09:55:27.856Z,13.77
2022-10-15T09:57:58.554Z,13.88
2022-10-15T10:00:25.281Z,13.82
2022-10-15T10:03:07.071Z,13.85
2022-10-15T10:05:36.503Z,13.83
2022-10-15T10:08:21.714Z,13.93
2022-10-15T10:10:59.413Z,13.80
2022-10-15T10:13:30.060Z,13.77
2022-10-15T10:16:03.098Z,13.85
2022-10-15T10:18:31.319Z,13.83
2022-10-15T10:21:01.515Z,13.85
2022-10-15T10:23:34.736Z,13.76
2022-10-15T10:26:04.409Z,13.77
2022-10-15T10:28:39.282Z,13.82
2022-10-15T10:31:10.179Z,13.90
2022-10-15T10:33:39.386Z,13.90
2022-10-15T10:38:36.849Z,13.92
2022-10-15T10:41:09.755Z,13.84
2022-10-15T10:43:39.316Z,13.94
2022-10-15T10:46:15.070Z,13.96
2022-10-15T10:48:46.679Z,13.98
2022-10-15T10:51:22.173Z,14.00
2022-10-15T10:53:56.855Z,14.01
2022-10-15T10:56:28.106Z,14.04
2022-10-15T10:59:11.270Z,14.12
2022-10-15T11:01:37.670Z,14.05
2022-10-15T11:06:55.905Z,14.02
2022-10-15T11:09:56.445Z,14.12
2022-10-15T11:12:37.873Z,14.07
2022-10-15T11:15:17.531Z,14.12
2022-10-15T11:18:03.805Z,14.05
2022-10-15T11:20:57.708Z,14.03
2022-10-15T11:23:43.352Z,14.03
2022-10-15T11:26:51.492Z,14.05
2022-10-15T11:29:33.936Z,13.98
2022-10-15T11:32:54.424Z,14.08
2022-10-15T11:36:01.402Z,14.15
2022-10-15T11:38:43.501Z,14.14
2022-10-15T11:41:29.128Z,14.19
2022-10-15T11:44:01.442Z,14.21
2022-10-15T11:46:52.187Z,14.19
2022-10-15T11:49:38.704Z,14.46
2022-10-15T11:52:25.918Z,14.46
2022-10-15T11:55:14.274Z,14.50
2022-10-15T11:57:43.294Z,14.51
2022-10-15T12:00:32.510Z,14.55
2022-10-15T12:03:31.454Z,14.50
2022-10-15T12:06:08.525Z,14.55
2022-10-15T12:08:37.376Z,14.54
2022-10-15T12:11:22.194Z,14.58
2022-10-15T12:14:06.913Z,14.65
2022-10-15T12:16:47.065Z,14.73
2022-10-15T12:19:20.117Z,14.74
2022-10-15T12:21:55.555Z,14.75
2022-10-15T12:24:52.241Z,14.70
2022-10-15T12:27:18.520Z,14.74
2022-10-15T12:29:45.410Z,14.81
2022-10-15T12:32:42.538Z,14.91
2022-10-15T12:35:14.979Z,14.90
2022-10-15T12:37:43.846Z,14.82
2022-10-15T12:40:22.453Z,14.79
2022-10-15T12:43:15.499Z,14.87
2022-10-15T12:45:51.918Z,14.88
2022-10-15T12:48:22.185Z,14.93
2022-10-15T12:50:48.607Z,14.91
2022-10-15T12:53:28.597Z,14.97
2022-10-15T12:56:10.408Z,14.96
2022-10-15T12:58:41.233Z,14.90
2022-10-15T13:01:16.387Z,15.10
2022-10-15T13:03:48.894Z,15.07
2022-10-15T13:06:24.697Z,15.07
2022-10-15T13:09:10.609Z,15.00
2022-10-15T13:11:48.250Z,15.10
2022-10-15T13:14:29.019Z,15.12
2022-10-15T13:16:56.607Z,15.20
2022-10-15T13:19:30.603Z,15.14
2022-10-15T13:22:02.772Z,15.17
2022-10-15T13:24:38.507Z,15.19
2022-10-15T13:27:21.740Z,15.19
2022-10-15T13:30:01.590Z,15.23
2022-10-15T13:32:31.636Z,15.21
2022-10-15T13:34:59.899Z,15.16
2022-10-15T13:37:32.627Z,15.21
2022-10-15T13:40:03.179Z,15.24
2022-10-15T13:42:33.648Z,15.26
2022-10-15T13:45:01.451Z,15.36
2022-10-15T13:47:41.068Z,15.31
2022-10-15T13:50:30.461Z,15.38
2022-10-15T13:53:08.855Z,15.34
2022-10-15T13:55:39.081Z,15.26
2022-10-15T13:58:22.235Z,15.27
2022-10-15T14:00:57.171Z,15.25
2022-10-15T14:03:35.774Z,15.19
2022-10-15T14:06:20.387Z,15.16
2022-10-15T14:08:49.910Z,15.15
2022-10-15T14:11:17.759Z,15.14
2022-10-15T14:13:50.268Z,15.12
2022-10-15T14:16:33.006Z,15.19
2022-10-15T14:19:10.581Z,15.12
2022-10-15T14:21:42.690Z,15.13
2022-10-15T14:24:33.290Z,15.16
2022-10-15T14:27:27.028Z,15.19
2022-10-15T14:29:59.904Z,15.17
2022-10-15T14:32:48.675Z,15.15
2022-10-15T14:35:35.101Z,15.14
2022-10-15T14:38:10.102Z,15.25
2022-10-15T14:40:36.758Z,15.19
2022-10-15T14:43:06.469Z,15.18
2022-10-15T14:45:42.007Z,15.12
2022-10-15T14:48:20.427Z,15.15
2022-10-15T14:50:47.434Z,15.03
2022-10-15T14:53:28.999Z,15.13
2022-10-15T14:56:01.870Z,15.12
2022-10-15T14:58:29.888Z,15.08
2022-10-15T15:01:02.310Z,15.06
2022-10-15T15:03:50.992Z,15.06
2022-10-15T15:06:18.246Z,15.08
2022-10-15T15:08:45.015Z,15.02
2022-10-15T15:11:19.419Z,15.03
2022-10-15T15:13:46.476Z,15.05
2022-10-15T15:16:14.586Z,15.08
2022-10-15T15:18:43.775Z,15.06
2022-10-15T15:21:14.177Z,14.97
2022-10-15T15:23:41.093Z,15.00
2022-10-15T15:26:07.571Z,14.86
2022-10-15T15:28:34.011Z,14.89
2022-10-15T15:31:05.289Z,14.88
2022-10-15T15:33:32.803Z,14.86
2022-10-15T15:36:07.902Z,14.83
2022-10-15T15:41:13.549Z,14.84
2022-10-15T15:43:40.236Z,14.86
2022-10-15T15:46:06.992Z,14.81
2022-10-15T15:48:33.398Z,14.85
2022-10-15T15:51:04.279Z,14.83
2022-10-15T15:53:30.770Z,14.80
2022-10-15T15:55:57.192Z,14.72
2022-10-15T15:58:23.586Z,14.80
2022-10-15T16:00:49.962Z,14.77
2022-10-15T16:03:16.308Z,14.76
2022-10-15T16:05:42.687Z,14.76
2022-10-15T16:08:10.861Z,14.70
2022-10-15T16:10:37.208Z,14.78
2022-10-15T16:13:03.668Z,14.78
2022-10-15T16:15:30.152Z,14.75
2022-10-15T16:17:56.521Z,14.71
2022-10-15T16:20:22.885Z,14.80
2022-10-15T16:22:50.789Z,14.80
2022-10-15T16:25:17.546Z,14.83
2022-10-15T16:27:47.420Z,14.79
2022-10-15T16:30:13.782Z,14.78
2022-10-15T16:32:40.128Z,14.73
2022-10-15T16:35:07.425Z,14.87
2022-10-15T16:37:33.880Z,14.80
2022-10-15T16:40:00.327Z,14.84
2022-10-15T16:42:26.695Z,14.77
2022-10-15T16:44:53.130Z,14.85
2022-10-15T16:47:21.332Z,14.79
2022-10-15T16:49:48.038Z,14.79
2022-10-15T16:52:14.476Z,14.75
2022-10-15T16:54:40.835Z,14.81
2022-10-15T16:57:07.242Z,14.77
2022-10-15T16:59:33.598Z,14.71
2022-10-15T17:02:01.235Z,14.66
2022-10-15T17:04:27.747Z,14.66
2022-10-15T17:06:54.084Z,14.62
2022-10-15T17:09:20.837Z,14.65
2022-10-15T17:11:47.651Z,14.67
2022-10-15T17:14:16.589Z,14.60
2022-10-15T17:16:52.517Z,14.64
2022-10-15T17:19:21.867Z,14.61
2022-10-15T17:21:48.242Z,14.67
2022-10-15T17:24:16.842Z,14.62
2022-10-15T17:26:44.717Z,14.69
2022-10-15T17:29:18.556Z,14.68
2022-10-15T17:31:44.902Z,14.78
2022-10-15T17:34:11.852Z,14.67
2022-10-15T17:36:45.576Z,14.79
2022-10-15T17:39:14.061Z,14.75
2022-10-15T17:41:40.493Z,14.69
2022-10-15T17:44:07.244Z,14.70
2022-10-15T17:46:33.731Z,14.73
2022-10-15T17:49:00.817Z,14.60
2022-10-15T17:51:29.529Z,14.61
2022-10-15T17:53:56.661Z,14.69
2022-10-15T17:56:26.218Z,14.64
2022-10-15T17:58:52.799Z,14.71
2022-10-15T18:01:33.293Z,14.58
2022-10-15T18:04:06.408Z,14.57
2022-10-15T18:06:32.778Z,14.57
2022-10-15T18:09:01.728Z,14.56
2022-10-15T18:11:30.958Z,14.54
2022-10-15T18:13:57.661Z,14.42
2022-10-15T18:16:24.548Z,14.45
2022-10-15T18:18:53.293Z,14.46
2022-10-15T18:21:21.840Z,14.34
2022-10-15T18:23:48.339Z,14.35
2022-10-15T18:26:19.800Z,14.30
2022-10-15T18:28:47.781Z,14.34
2022-10-15T18:31:17.596Z,14.32
2022-10-15T18:33:46.953Z,14.30
2022-10-15T18:36:16.041Z,14.21
2022-10-15T18:38:45.577Z,14.24
2022-10-15T18:41:20.551Z,14.25
2022-10-15T18:43:54.185Z,14.43
2022-10-15T18:46:21.528Z,14.46
2022-10-15T18:48:48.884Z,14.37
2022-10-15T18:51:15.680Z,14.31
2022-10-15T18:53:42.070Z,14.34
2022-10-15T18:56:10.101Z,14.35
2022-10-15T18:58:38.883Z,14.23
2022-10-15T19:01:27.320Z,14.25
2022-10-15T19:03:55.927Z,14.25
2022-10-15T19:06:25.446Z,14.16
2022-10-15T19:08:52.241Z,14.17
2022-10-15T19:11:19.409Z,14.13
2022-10-15T19:13:45.892Z,14.09
2022-10-15T19:16:12.246Z,14.05
2022-10-15T19:18:38.811Z,14.07
2022-10-15T19:21:05.773Z,14.05
2022-10-15T19:23:32.827Z,14.05
2022-10-15T19:25:59.318Z,13.96
2022-10-15T19:28:27.007Z,13.91
2022-10-15T19:31:02.520Z,13.89
2022-10-15T19:33:30.682Z,13.87
2022-10-15T19:35:57.315Z,13.81
2022-10-15T19:38:25.046Z,13.79
2022-10-15T19:40:52.234Z,13.71
2022-10-15T19:43:20.794Z,13.61
2022-10-15T19:45:48.215Z,13.63
2022-10-15T19:48:19.326Z,13.65
2022-10-15T19:50:47.071Z,13.55
2022-10-15T19:53:16.510Z,13.50
2022-10-15T19:55:44.274Z,13.34
2022-10-15T19:58:10.749Z,13.32
2022-10-15T20:00:37.103Z,13.18
2022-10-15T20:03:03.527Z,13.16
2022-10-15T20:05:29.879Z,13.15
2022-10-15T20:07:56.252Z,13.27
2022-10-15T20:10:26.031Z,13.20
2022-10-15T20:12:52.951Z,13.18
2022-10-15T20:15:19.337Z,13.12
2022-10-15T20:17:46.740Z,13.09
2022-10-15T20:20:13.096Z,13.02
2022-10-15T20:22:39.413Z,13.01
2022-10-15T20:25:05.927Z,12.96
2022-10-15T20:27:32.805Z,13.05
2022-10-15T20:29:59.191Z,13.04
2022-10-15T20:32:40.827Z,13.01
2022-10-15T20:35:07.914Z,13.07
2022-10-15T20:37:34.282Z,13.18
2022-10-15T20:40:01.010Z,13.20
2022-10-15T20:42:27.795Z,13.27
2022-10-15T20:44:54.470Z,13.43
2022-10-15T20:47:22.284Z,13.45
2022-10-15T20:49:52.320Z,13.45
2022-10-15T20:52:19.074Z,13.44
2022-10-15T20:54:45.470Z,13.42
2022-10-15T20:57:12.572Z,13.34
2022-10-15T20:59:38.945Z,13.39
2022-10-15T21:02:05.380Z,13.34
2022-10-15T21:04:31.760Z,13.27
2022-10-15T21:06:58.222Z,13.34
2022-10-15T21:09:24.716Z,13.21
2022-10-15T21:11:51.079Z,13.21
2022-10-15T21:14:17.618Z,13.15
2022-10-15T21:16:43.955Z,13.21
2022-10-15T21:19:10.327Z,13.18
2022-10-15T21:21:36.847Z,13.07
2022-10-15T21:24:03.516Z,12.96
2022-10-15T21:26:29.903Z,12.92
2022-10-15T21:28:57.808Z,12.91
2022-10-15T21:31:25.321Z,12.77
2022-10-15T21:33:54.480Z,12.69
2022-10-15T21:36:24.256Z,12.83
2022-10-15T21:39:06.252Z,12.67
2022-10-15T21:41:34.344Z,12.54
2022-10-15T21:44:01.521Z,12.41
2022-10-15T21:46:28.347Z,12.49
2022-10-15T21:48:54.996Z,12.40
2022-10-15T21:51:28.431Z,12.31
2022-10-15T21:53:56.387Z,12.28
2022-10-15T21:56:23.239Z,12.16
2022-10-15T21:58:49.927Z,12.07
2022-10-15T22:01:24.830Z,12.04
2022-10-15T22:03:53.170Z,12.05
2022-10-15T22:06:20.825Z,12.00
2022-10-15T22:08:47.988Z,11.89
2022-10-15T22:11:19.076Z,12.07
2022-10-15T22:13:48.826Z,11.91
2022-10-15T22:16:17.404Z,11.86
2022-10-15T22:18:44.388Z,12.03
2022-10-15T22:21:31.846Z,11.89
2022-10-15T22:24:01.040Z,11.77
2022-10-15T22:26:32.291Z,11.74
2022-10-15T22:29:00.651Z,11.75
2022-10-15T22:31:28.331Z,11.75
2022-10-15T22:33:55.194Z,11.70
2022-10-15T22:36:24.295Z,11.81
2022-10-15T22:41:34.014Z,11.66
2022-10-15T22:44:00.712Z,11.60
2022-10-15T22:46:27.580Z,11.59
2022-10-15T22:49:00.646Z,11.58
2022-10-15T22:51:27.403Z,11.60
2022-10-15T22:53:55.552Z,11.67
2022-10-15T22:56:22.175Z,11.62
2022-10-15T22:58:48.935Z,11.62
2022-10-15T23:01:20.970Z,11.49
2022-10-15T23:03:50.904Z,11.49
2022-10-15T23:06:18.568Z,11.46
2022-10-15T23:08:47.254Z,11.37
2022-10-15T23:11:23.870Z,11.43
2022-10-15T23:13:56.026Z,11.35
2022-10-15T23:16:28.387Z,11.37
2022-10-15T23:18:57.799Z,11.34
2022-10-15T23:21:34.459Z,11.31
2022-10-15T23:24:01.887Z,11.43
2022-10-15T23:29:01.778Z,11.43
2022-10-15T23:31:34.526Z,11.38
2022-10-15T23:34:02.278Z,11.32
2022-10-15T23:36:30.070Z,11.32
2022-10-15T23:38:59.421Z,11.32
2022-10-15T23:41:27.900Z,11.29
2022-10-15T23:43:54.909Z,11.29
2022-10-15T23:46:21.339Z,11.29
2022-10-15T23:48:48.294Z,11.26
2022-10-15T23:51:26.437Z,11.38
2022-10-15T23:53:54.827Z,11.33
2022-10-15T23:56:22.383Z,11.29
2022-10-15T23:58:50.240Z,11.35
